createdAt,value
2023-02-19T00:01:54.261Z,26.55
2023-02-19T00:04:22.791Z,27.27
2023-02-19T00:06:50.469Z,27.38
2023-02-19T00:09:20.151Z,23.05
2023-02-19T00:11:48.231Z,23.33
2023-02-19T00:14:19.639Z,24.70
2023-02-19T00:16:47.438Z,25.77
2023-02-19T00:19:18.290Z,26.90
2023-02-19T00:21:45.592Z,32.58
2023-02-19T00:24:15.284Z,30.25
2023-02-19T00:26:44.364Z,33.58
2023-02-19T00:29:20.944Z,30.20
2023-02-19T00:31:48.856Z,34.70
2023-02-19T00:34:16.372Z,31.75
2023-02-19T00:36:44.296Z,32.28
2023-02-19T00:39:15.926Z,36.63
2023-02-19T00:41:43.980Z,32.10
2023-02-19T00:44:13.237Z,35.80
2023-02-19T00:46:44.182Z,35.17
2023-02-19T00:49:18.731Z,34.97
2023-02-19T00:51:46.455Z,31.45
2023-02-19T00:54:14.606Z,33.53
2023-02-19T00:56:42.022Z,35.03
2023-02-19T00:59:09.837Z,34.58
2023-02-19T01:01:37.867Z,33.92
2023-02-19T01:04:06.732Z,31.63
2023-02-19T01:06:35.354Z,35.83
2023-02-19T01:09:04.518Z,30.83
2023-02-19T01:11:31.819Z,28.63
2023-02-19T01:14:00.513Z,31.50
2023-02-19T01:16:28.253Z,32.97
2023-02-19T01:18:57.061Z,31.50
2023-02-19T01:21:26.967Z,28.55
2023-02-19T01:23:55.759Z,29.38
2023-02-19T01:26:30.040Z,22.98
2023-02-19T01:28:58.299Z,29.73
2023-02-19T01:31:26.648Z,26.83
2023-02-19T01:33:58.529Z,29.13
2023-02-19T01:36:27.509Z,26.95
2023-02-19T01:38:55.359Z,28.00
2023-02-19T01:41:25.313Z,28.48
2023-02-19T01:43:56.680Z,25.08
2023-02-19T01:46:48.723Z,27.55
2023-02-19T01:49:41.338Z,22.98
2023-02-19T01:52:44.067Z,24.23
2023-02-19T01:55:14.153Z,18.25
2023-02-19T01:57:46.519Z,19.83
2023-02-19T02:00:18.372Z,21.98
2023-02-19T02:02:51.847Z,21.00
2023-02-19T02:05:25.724Z,22.25
2023-02-19T02:08:12.154Z,16.98
2023-02-19T02:10:39.240Z,19.25
2023-02-19T02:13:06.538Z,21.27
2023-02-19T02:16:29.667Z,16.60
2023-02-19T02:19:53.589Z,17.67
2023-02-19T02:22:46.130Z,18.00
2023-02-19T02:25:56.280Z,16.48
2023-02-19T02:29:12.775Z,13.88
2023-02-19T02:31:50.365Z,16.95
2023-02-19T02:35:04.657Z,16.77
2023-02-19T02:37:37.489Z,19.27
2023-02-19T02:40:07.448Z,20.02
2023-02-19T02:42:38.823Z,13.80
2023-02-19T02:45:37.040Z,11.98
2023-02-19T02:48:54.008Z,17.15
2023-02-19T02:51:40.046Z,13.40
2023-02-19T02:54:40.777Z,14.18
2023-02-19T02:57:14.977Z,13.25
2023-02-19T02:59:56.557Z,13.30
2023-02-19T03:02:29.068Z,15.68
2023-02-19T03:05:39.978Z,13.20
2023-02-19T03:08:25.676Z,13.00
2023-02-19T03:11:23.971Z,14.52
2023-02-19T03:14:35.576Z,13.73
2023-02-19T03:17:52.467Z,17.67
2023-02-19T03:20:24.100Z,16.52
2023-02-19T03:22:53.752Z,13.90
2023-02-19T03:25:45.280Z,17.50
2023-02-19T03:28:19.244Z,16.27
2023-02-19T03:30:54.094Z,15.00
2023-02-19T03:33:26.838Z,14.07
2023-02-19T03:36:03.027Z,17.95
2023-02-19T03:38:47.890Z,16.50
2023-02-19T03:41:44.348Z,15.45
2023-02-19T03:45:21.502Z,14.20
2023-02-19T03:48:02.154Z,17.10
2023-02-19T03:50:50.493Z,15.35
2023-02-19T03:53:47.691Z,15.68
2023-02-19T03:59:13.056Z,17.27
2023-02-19T04:01:58.280Z,18.08
2023-02-19T04:04:53.129Z,17.17
2023-02-19T04:07:22.625Z,18.52
2023-02-19T04:09:52.125Z,16.80
2023-02-19T04:12:23.467Z,15.98
2023-02-19T04:15:00.809Z,13.77
2023-02-19T04:17:35.074Z,5.82
2023-02-19T04:20:08.639Z,3.92
2023-02-19T04:22:37.518Z,3.17
2023-02-19T04:25:05.096Z,3.28
2023-02-19T04:27:32.909Z,2.80
2023-02-19T04:30:00.022Z,2.80
2023-02-19T04:32:27.330Z,2.90
2023-02-19T04:34:54.514Z,2.80
2023-02-19T04:37:21.696Z,2.80
2023-02-19T04:39:48.783Z,3.10
2023-02-19T04:42:16.015Z,2.83
2023-02-19T04:44:43.298Z,2.50
2023-02-19T04:47:10.403Z,3.13
2023-02-19T04:49:37.516Z,3.25
2023-02-19T04:52:04.832Z,2.80
2023-02-19T04:54:31.935Z,3.67
2023-02-19T04:56:59.106Z,3.08
2023-02-19T04:59:26.260Z,3.20
2023-02-19T05:01:53.400Z,4.82
2023-02-19T05:04:20.830Z,3.42
2023-02-19T05:06:48.086Z,6.28
2023-02-19T05:09:15.221Z,4.57
2023-02-19T05:11:42.531Z,6.28
2023-02-19T05:14:09.713Z,4.50
2023-02-19T05:16:36.985Z,5.50
2023-02-19T05:19:04.190Z,5.07
2023-02-19T05:21:31.362Z,4.70
2023-02-19T05:23:58.661Z,4.10
2023-02-19T05:26:26.716Z,4.20
2023-02-19T05:28:54.433Z,5.03
2023-02-19T05:31:22.040Z,3.90
2023-02-19T05:33:51.480Z,5.75
2023-02-19T05:36:21.321Z,4.80
2023-02-19T05:38:52.645Z,5.25
2023-02-19T05:41:24.307Z,5.03
2023-02-19T05:43:51.917Z,5.20
2023-02-19T05:46:23.017Z,5.95
2023-02-19T05:48:52.339Z,5.93
2023-02-19T05:51:22.808Z,5.95
2023-02-19T05:53:50.811Z,4.80
2023-02-19T05:56:26.991Z,5.72
2023-02-19T05:58:54.873Z,5.10
2023-02-19T06:01:25.075Z,5.20
2023-02-19T06:03:55.393Z,6.15
2023-02-19T06:06:25.364Z,5.82
2023-02-19T06:08:53.286Z,5.53
2023-02-19T06:11:20.961Z,5.20
2023-02-19T06:13:50.244Z,5.95
2023-02-19T06:16:18.440Z,5.00
2023-02-19T06:18:46.170Z,5.60
2023-02-19T06:21:14.494Z,5.70
2023-02-19T06:23:42.226Z,6.07
2023-02-19T06:26:19.705Z,6.32
2023-02-19T06:28:49.207Z,6.30
2023-02-19T06:31:18.088Z,5.65
2023-02-19T06:33:45.873Z,6.22
2023-02-19T06:36:19.442Z,6.80
2023-02-19T06:38:46.607Z,6.65
2023-02-19T06:41:14.959Z,6.13
2023-02-19T06:43:42.906Z,7.40
2023-02-19T06:46:12.874Z,6.85
2023-02-19T06:48:43.791Z,7.13
2023-02-19T06:51:24.307Z,7.00
2023-02-19T06:53:51.432Z,6.57
2023-02-19T06:56:31.087Z,6.28
2023-02-19T06:59:01.418Z,8.38
2023-02-19T07:01:30.830Z,6.68
2023-02-19T07:03:58.559Z,6.05
2023-02-19T07:06:26.688Z,5.20
2023-02-19T07:08:56.453Z,5.35
2023-02-19T07:11:24.835Z,4.93
2023-02-19T07:14:04.361Z,5.20
2023-02-19T07:16:31.988Z,6.38
2023-02-19T07:19:00.852Z,6.38
2023-02-19T07:21:29.661Z,6.70
2023-02-19T07:23:57.656Z,6.70
2023-02-19T07:26:25.146Z,5.45
2023-02-19T07:28:52.894Z,5.68
2023-02-19T07:31:24.089Z,6.57
2023-02-19T07:33:51.710Z,6.13
2023-02-19T07:36:20.695Z,6.38
2023-02-19T07:38:47.903Z,5.75
2023-02-19T07:41:15.092Z,7.03
2023-02-19T07:43:42.224Z,6.13
2023-02-19T07:46:13.149Z,6.80
2023-02-19T07:48:42.625Z,6.05
2023-02-19T07:51:14.979Z,6.53
2023-02-19T07:53:42.093Z,6.30
2023-02-19T07:56:11.983Z,7.20
2023-02-19T07:58:39.568Z,7.40
2023-02-19T08:01:09.560Z,8.40
2023-02-19T08:03:38.088Z,6.20
2023-02-19T08:06:06.122Z,6.10
2023-02-19T08:08:33.288Z,6.10
2023-02-19T08:11:21.031Z,5.45
2023-02-19T08:13:50.795Z,8.38
2023-02-19T08:16:29.651Z,7.32
2023-02-19T08:19:00.798Z,5.80
2023-02-19T08:21:28.054Z,6.50
2023-02-19T08:23:55.243Z,5.45
2023-02-19T08:26:22.490Z,6.10
2023-02-19T08:28:49.626Z,5.75
2023-02-19T08:31:16.833Z,7.57
2023-02-19T08:33:44.017Z,6.28
2023-02-19T08:36:11.902Z,5.32
2023-02-19T08:38:39.040Z,6.32
2023-02-19T08:41:08.862Z,6.75
2023-02-19T08:43:36.759Z,5.90
2023-02-19T08:46:07.220Z,5.95
2023-02-19T08:48:34.553Z,7.20
2023-02-19T08:51:08.329Z,6.20
2023-02-19T08:53:37.921Z,6.45
2023-02-19T08:56:14.994Z,5.03
2023-02-19T08:58:42.711Z,5.40
2023-02-19T09:01:13.731Z,6.13
2023-02-19T09:03:42.891Z,5.35
2023-02-19T09:06:19.491Z,5.07
2023-02-19T09:08:47.064Z,4.93
2023-02-19T09:11:14.993Z,4.40
2023-02-19T09:13:42.827Z,4.63
2023-02-19T09:16:11.153Z,4.15
2023-02-19T09:18:38.479Z,4.32
2023-02-19T09:21:06.746Z,4.65
2023-02-19T09:23:36.244Z,5.28
2023-02-19T09:26:07.578Z,2.78
2023-02-19T09:28:35.782Z,4.07
2023-02-19T09:31:08.896Z,3.80
2023-02-19T09:33:36.492Z,3.35
2023-02-19T09:36:04.703Z,3.90
2023-02-19T09:38:31.811Z,3.58
2023-02-19T09:41:00.140Z,3.35
2023-02-19T09:43:30.005Z,3.30
2023-02-19T09:46:10.206Z,3.08
2023-02-19T09:48:37.471Z,4.18
2023-02-19T09:51:05.403Z,3.80
2023-02-19T09:53:42.354Z,3.67
2023-02-19T09:56:10.245Z,3.10
2023-02-19T09:58:52.908Z,2.72
2023-02-19T10:01:21.363Z,1.98
2023-02-19T10:03:49.235Z,2.45
2023-02-19T10:06:24.113Z,3.15
2023-02-19T10:09:21.697Z,2.67
2023-02-19T10:11:49.771Z,2.42
2023-02-19T10:14:29.675Z,3.20
2023-02-19T10:17:01.348Z,3.22
2023-02-19T10:19:29.809Z,3.78
2023-02-19T10:21:57.014Z,3.58
2023-02-19T10:24:28.615Z,2.90
2023-02-19T10:26:56.751Z,2.78
2023-02-19T10:29:24.863Z,2.42
2023-02-19T10:32:13.244Z,3.45
2023-02-19T10:34:40.336Z,2.85
2023-02-19T10:37:14.977Z,3.45
2023-02-19T10:39:48.060Z,4.15
2023-02-19T10:42:21.787Z,2.38
2023-02-19T10:45:02.001Z,2.17
2023-02-19T10:47:32.862Z,2.03
2023-02-19T10:50:03.402Z,2.75
2023-02-19T10:52:36.209Z,2.28
2023-02-19T10:55:36.738Z,2.58
2023-02-19T10:58:28.711Z,2.70
2023-02-19T11:01:16.620Z,3.30
2023-02-19T11:03:43.993Z,2.00
2023-02-19T11:06:13.355Z,3.13
2023-02-19T11:08:59.517Z,2.63
2023-02-19T11:11:32.761Z,2.53
2023-02-19T11:14:14.711Z,3.22
2023-02-19T11:16:52.319Z,2.15
2023-02-19T11:19:36.593Z,3.10
2023-02-19T11:22:20.055Z,3.85
2023-02-19T11:24:54.517Z,3.30
2023-02-19T11:29:51.938Z,2.50
2023-02-19T11:32:30.874Z,3.05
2023-02-19T11:35:33.564Z,3.45
2023-02-19T11:38:02.176Z,2.70
2023-02-19T11:40:44.378Z,3.35
2023-02-19T11:43:17.143Z,2.67
2023-02-19T11:46:07.076Z,2.65
2023-02-19T11:49:19.053Z,3.80
2023-02-19T11:52:17.836Z,3.25
2023-02-19T11:55:18.786Z,2.85
2023-02-19T11:58:09.920Z,3.53
2023-02-19T12:01:15.166Z,3.85
2023-02-19T12:04:21.229Z,3.55
2023-02-19T12:07:06.367Z,3.10
2023-02-19T12:09:51.239Z,4.03
2023-02-19T12:13:01.872Z,2.58
2023-02-19T12:15:49.375Z,3.55
2023-02-19T12:18:51.517Z,4.28
2023-02-19T12:21:46.120Z,2.90
2023-02-19T12:24:49.802Z,4.45
2023-02-19T12:27:46.016Z,3.30
2023-02-19T12:30:28.372Z,3.25
2023-02-19T12:33:31.975Z,2.67
2023-02-19T12:36:24.001Z,2.33
2023-02-19T12:39:22.857Z,3.15
2023-02-19T12:42:25.157Z,4.68
2023-02-19T12:44:59.097Z,3.05
2023-02-19T12:47:36.749Z,3.25
2023-02-19T12:50:25.585Z,4.35
2023-02-19T12:53:29.058Z,6.82
2023-02-19T12:55:57.738Z,5.07
2023-02-19T12:58:35.156Z,4.25
2023-02-19T13:01:04.381Z,3.28
2023-02-19T13:03:49.352Z,2.70
2023-02-19T13:06:42.452Z,3.45
2023-02-19T13:09:28.287Z,2.88
2023-02-19T13:12:27.631Z,5.53
2023-02-19T13:15:30.113Z,3.05
2023-02-19T13:18:01.352Z,3.30
2023-02-19T13:20:34.756Z,4.63
2023-02-19T13:23:29.293Z,3.40
2023-02-19T13:26:22.337Z,2.75
2023-02-19T13:29:30.023Z,4.55
2023-02-19T13:32:24.696Z,5.07
2023-02-19T13:35:38.370Z,5.13
2023-02-19T13:38:07.712Z,2.25
2023-02-19T13:40:39.861Z,3.65
2023-02-19T13:43:25.492Z,2.75
2023-02-19T13:46:15.008Z,2.90
2023-02-19T13:48:44.476Z,3.83
2023-02-19T13:51:34.236Z,2.30
2023-02-19T13:54:03.342Z,3.08
2023-02-19T13:56:31.265Z,3.95
2023-02-19T13:59:36.592Z,3.22
2023-02-19T14:02:03.689Z,3.40
2023-02-19T14:04:44.946Z,3.03
2023-02-19T14:07:11.928Z,2.80
2023-02-19T14:09:39.979Z,3.08
2023-02-19T14:12:10.376Z,2.88
2023-02-19T14:14:37.680Z,3.72
2023-02-19T14:17:48.211Z,4.30
2023-02-19T14:20:15.303Z,2.67
2023-02-19T14:22:46.008Z,3.38
2023-02-19T14:25:31.142Z,2.40
2023-02-19T14:28:10.760Z,4.10
2023-02-19T14:31:00.683Z,6.03
2023-02-19T14:33:30.953Z,2.28
2023-02-19T14:36:16.170Z,2.53
2023-02-19T14:38:58.437Z,3.30
2023-02-19T14:41:28.754Z,2.45
2023-02-19T14:43:58.621Z,5.20
2023-02-19T14:46:37.732Z,3.65
2023-02-19T14:49:16.403Z,2.97
2023-02-19T14:51:48.335Z,5.10
2023-02-19T14:54:46.797Z,4.50
2023-02-19T14:57:20.765Z,4.65
2023-02-19T15:00:01.373Z,3.40
2023-02-19T15:02:31.595Z,3.15
2023-02-19T15:04:58.993Z,3.33
2023-02-19T15:07:30.742Z,3.88
2023-02-19T15:10:05.573Z,3.97
2023-02-19T15:12:59.225Z,3.25
2023-02-19T15:15:29.812Z,3.83
2023-02-19T15:17:59.891Z,2.78
2023-02-19T15:20:32.857Z,3.50
2023-02-19T15:23:01.797Z,3.08
2023-02-19T15:25:38.284Z,2.28
2023-02-19T15:28:24.282Z,2.85
2023-02-19T15:31:07.451Z,3.13
2023-02-19T15:33:35.082Z,3.97
2023-02-19T15:36:07.044Z,4.22
2023-02-19T15:38:34.782Z,3.95
2023-02-19T15:41:02.222Z,5.22
2023-02-19T15:43:46.011Z,3.47
2023-02-19T15:46:23.980Z,4.25
2023-02-19T15:49:06.299Z,3.22
2023-02-19T15:51:53.707Z,3.45
2023-02-19T15:54:42.695Z,3.33
2023-02-19T15:57:18.366Z,4.15
2023-02-19T15:59:55.872Z,3.90
2023-02-19T16:02:23.203Z,3.78
2023-02-19T16:04:50.455Z,4.03
2023-02-19T16:07:31.925Z,4.05
2023-02-19T16:10:19.117Z,2.97
2023-02-19T16:13:03.146Z,4.28
2023-02-19T16:15:32.669Z,3.90
2023-02-19T16:18:00.873Z,3.90
2023-02-19T16:20:36.132Z,5.05
2023-02-19T16:23:14.520Z,4.85
2023-02-19T16:25:46.288Z,4.40
2023-02-19T16:28:18.643Z,4.38
2023-02-19T16:30:46.117Z,6.82
2023-02-19T16:33:28.857Z,6.32
2023-02-19T16:35:56.030Z,6.07
2023-02-19T16:38:23.074Z,5.90
2023-02-19T16:40:53.291Z,5.10
2023-02-19T16:43:42.385Z,6.32
2023-02-19T16:46:13.686Z,5.40
2023-02-19T16:48:41.033Z,4.78
2023-02-19T16:51:09.549Z,6.80
2023-02-19T16:53:37.177Z,6.43
2023-02-19T16:56:04.966Z,6.72
2023-02-19T16:58:32.449Z,5.63
2023-02-19T17:01:00.818Z,6.07
2023-02-19T17:03:28.913Z,5.70
2023-02-19T17:05:56.723Z,6.75
2023-02-19T17:08:50.250Z,8.95
2023-02-19T17:11:18.234Z,6.43
2023-02-19T17:13:46.761Z,7.85
2023-02-19T17:16:40.556Z,7.75
2023-02-19T17:19:18.312Z,6.80
2023-02-19T17:21:46.734Z,7.55
2023-02-19T17:24:14.919Z,10.05
2023-02-19T17:26:42.832Z,8.02
2023-02-19T17:29:15.575Z,8.63
2023-02-19T17:31:43.366Z,6.93
2023-02-19T17:34:11.562Z,7.03
2023-02-19T17:36:40.578Z,6.70
2023-02-19T17:39:15.288Z,7.30
2023-02-19T17:41:43.576Z,7.22
2023-02-19T17:44:11.809Z,8.18
2023-02-19T17:46:39.646Z,6.20
2023-02-19T17:49:07.542Z,5.80
2023-02-19T17:51:35.536Z,8.15
2023-02-19T17:54:03.272Z,6.57
2023-02-19T17:56:31.075Z,7.97
2023-02-19T17:58:59.989Z,8.18
2023-02-19T18:01:27.737Z,5.35
2023-02-19T18:04:05.899Z,8.18
2023-02-19T18:06:33.083Z,6.15
2023-02-19T18:09:00.322Z,6.10
2023-02-19T18:11:27.477Z,9.40
2023-02-19T18:13:54.840Z,8.50
2023-02-19T18:16:22.586Z,7.57
2023-02-19T18:18:50.660Z,8.10
2023-02-19T18:21:18.198Z,8.75
2023-02-19T18:23:47.083Z,6.40
2023-02-19T18:26:20.270Z,7.75
2023-02-19T18:28:47.644Z,6.97
2023-02-19T18:31:15.454Z,6.97
2023-02-19T18:33:42.987Z,8.27
2023-02-19T18:36:12.520Z,7.07
2023-02-19T18:38:40.013Z,6.65
2023-02-19T18:41:11.536Z,10.93
2023-02-19T18:43:40.989Z,8.88
2023-02-19T18:46:09.412Z,7.60
2023-02-19T18:48:37.339Z,10.30
2023-02-19T18:51:05.084Z,8.88
2023-02-19T18:53:32.372Z,8.05
2023-02-19T18:56:01.945Z,7.88
2023-02-19T18:58:29.176Z,9.38
2023-02-19T19:00:57.070Z,7.07
2023-02-19T19:03:24.353Z,7.85
2023-02-19T19:05:51.551Z,6.65
2023-02-19T19:08:18.649Z,8.25
2023-02-19T19:10:45.786Z,8.52
2023-02-19T19:13:12.925Z,9.55
2023-02-19T19:15:41.383Z,6.72
2023-02-19T19:18:09.186Z,8.18
2023-02-19T19:20:36.464Z,8.32
2023-02-19T19:23:04.900Z,7.57
2023-02-19T19:25:32.235Z,7.22
2023-02-19T19:27:59.644Z,9.02
2023-02-19T19:30:26.960Z,6.18
2023-02-19T19:32:54.344Z,5.70
2023-02-19T19:35:22.431Z,5.60
2023-02-19T19:37:50.242Z,7.50
2023-02-19T19:40:18.890Z,7.05
2023-02-19T19:42:46.601Z,5.22
2023-02-19T19:45:14.223Z,6.15
2023-02-19T19:47:41.549Z,4.93
2023-02-19T19:50:09.665Z,7.47
2023-02-19T19:52:36.947Z,6.70
2023-02-19T19:55:04.702Z,7.85
2023-02-19T19:57:31.866Z,7.30
2023-02-19T19:59:59.232Z,8.48
2023-02-19T20:02:26.690Z,6.60
2023-02-19T20:04:54.046Z,8.90
2023-02-19T20:07:21.737Z,6.13
2023-02-19T20:09:50.021Z,5.78
2023-02-19T20:12:18.132Z,9.13
2023-02-19T20:14:46.835Z,8.93
2023-02-19T20:17:14.569Z,5.45
2023-02-19T20:19:42.009Z,6.45
2023-02-19T20:22:09.516Z,8.05
2023-02-19T20:24:36.829Z,8.68
2023-02-19T20:27:04.493Z,8.18
2023-02-19T20:29:34.332Z,6.03
2023-02-19T20:32:03.741Z,5.97
2023-02-19T20:34:31.396Z,7.07
2023-02-19T20:36:58.990Z,6.13
2023-02-19T20:39:29.037Z,5.45
2023-02-19T20:41:58.221Z,6.45
2023-02-19T20:44:29.904Z,4.43
2023-02-19T20:46:59.397Z,5.80
2023-02-19T20:49:29.998Z,6.03
2023-02-19T20:52:01.682Z,6.85
2023-02-19T20:54:32.220Z,6.28
2023-02-19T20:57:02.466Z,4.13
2023-02-19T20:59:35.040Z,5.85
2023-02-19T21:02:12.066Z,4.95
2023-02-19T21:04:40.519Z,4.75
2023-02-19T21:07:07.617Z,5.45
2023-02-19T21:09:34.689Z,3.50
2023-02-19T21:12:02.065Z,4.00
2023-02-19T21:14:29.393Z,4.13
2023-02-19T21:16:56.715Z,3.45
2023-02-19T21:19:24.884Z,5.72
2023-02-19T21:21:52.124Z,4.45
2023-02-19T21:24:19.338Z,4.70
2023-02-19T21:26:46.799Z,4.68
2023-02-19T21:29:20.947Z,4.72
2023-02-19T21:31:51.535Z,3.75
2023-02-19T21:34:23.301Z,4.68
2023-02-19T21:36:50.985Z,4.40
2023-02-19T21:39:21.013Z,4.38
2023-02-19T21:41:48.927Z,5.55
2023-02-19T21:44:16.720Z,5.22
2023-02-19T21:46:44.150Z,4.88
2023-02-19T21:49:12.727Z,4.53
2023-02-19T21:51:43.310Z,4.78
2023-02-19T21:54:17.542Z,5.55
2023-02-19T21:56:44.844Z,4.30
2023-02-19T21:59:12.462Z,5.80
2023-02-19T22:01:40.440Z,6.10
2023-02-19T22:04:10.639Z,8.20
2023-02-19T22:06:40.484Z,5.60
2023-02-19T22:09:08.672Z,10.80
2023-02-19T22:11:35.916Z,6.45
2023-02-19T22:14:03.301Z,6.13
2023-02-19T22:16:30.648Z,7.45
2023-02-19T22:18:59.458Z,7.22
2023-02-19T22:21:33.596Z,5.97
2023-02-19T22:24:02.761Z,7.18
2023-02-19T22:26:35.358Z,8.35
2023-02-19T22:29:08.303Z,10.23
2023-02-19T22:31:35.990Z,6.82
2023-02-19T22:34:04.348Z,7.70
2023-02-19T22:36:34.076Z,6.28
2023-02-19T22:39:01.787Z,7.05
2023-02-19T22:41:29.229Z,6.68
2023-02-19T22:43:59.026Z,5.85
2023-02-19T22:46:30.810Z,6.13
2023-02-19T22:48:59.220Z,6.22
2023-02-19T22:51:26.552Z,5.68
2023-02-19T22:53:56.871Z,5.20
2023-02-19T22:56:27.697Z,5.07
2023-02-19T22:58:56.652Z,7.05
2023-02-19T23:01:24.659Z,5.55
2023-02-19T23:03:58.456Z,5.60
2023-02-19T23:06:33.361Z,5.55
2023-02-19T23:09:06.354Z,5.82
2023-02-19T23:11:37.234Z,6.03
2023-02-19T23:14:05.226Z,5.88
2023-02-19T23:16:38.591Z,5.55
2023-02-19T23:19:10.457Z,6.47
2023-02-19T23:21:39.911Z,6.85
2023-02-19T23:24:07.774Z,6.30
2023-02-19T23:26:35.619Z,5.93
2023-02-19T23:29:03.246Z,6.55
2023-02-19T23:31:30.561Z,5.78
2023-02-19T23:33:57.694Z,7.60
2023-02-19T23:36:25.655Z,7.82
2023-02-19T23:38:52.910Z,8.13
2023-02-19T23:41:20.280Z,7.57
2023-02-19T23:43:47.388Z,8.25
2023-02-19T23:46:17.816Z,9.63
2023-02-19T23:48:46.302Z,10.10
2023-02-19T23:51:13.926Z,8.55
2023-02-19T23:53:41.109Z,8.25
2023-02-19T23:56:08.900Z,9.70
2023-02-19T23:58:36.226Z,8.82
